sensor_id;sensor_type;location;lat;lon;timestamp;P1;durP1;ratioP1;P2;durP2;ratioP2
54517;SDS011;40423;53.176;6.002;2023-08-31T00:00:34;4.38;;;1.15;;
54517;SDS011;40423;53.176;6.002;2023-08-31T00:03:01;4.05;;;0.93;;
54517;SDS011;40423;53.176;6.002;2023-08-31T00:05:27;3.25;;;0.80;;
54517;SDS011;40423;53.176;6.002;2023-08-31T00:07:55;3.08;;;0.70;;
54517;SDS011;40423;53.176;6.002;2023-08-31T00:10:21;1.30;;;0.68;;
54517;SDS011;40423;53.176;6.002;2023-08-31T00:12:48;3.55;;;1.02;;
54517;SDS011;40423;53.176;6.002;2023-08-31T00:15:14;2.05;;;0.90;;
54517;SDS011;40423;53.176;6.002;2023-08-31T00:17:40;3.55;;;1.10;;
54517;SDS011;40423;53.176;6.002;2023-08-31T00:20:06;3.78;;;0.82;;
54517;SDS011;40423;53.176;6.002;2023-08-31T00:22:36;2.47;;;0.80;;
54517;SDS011;40423;53.176;6.002;2023-08-31T00:25:03;5.30;;;1.88;;
54517;SDS011;40423;53.176;6.002;2023-08-31T00:27:30;2.92;;;0.93;;
54517;SDS011;40423;53.176;6.002;2023-08-31T00:29:56;1.23;;;0.82;;
54517;SDS011;40423;53.176;6.002;2023-08-31T00:32:23;3.42;;;1.00;;
54517;SDS011;40423;53.176;6.002;2023-08-31T00:34:49;2.25;;;1.27;;
54517;SDS011;40423;53.176;6.002;2023-08-31T00:37:15;2.30;;;0.82;;
54517;SDS011;40423;53.176;6.002;2023-08-31T00:39:41;3.10;;;1.00;;
54517;SDS011;40423;53.176;6.002;2023-08-31T00:42:07;3.75;;;0.90;;
54517;SDS011;40423;53.176;6.002;2023-08-31T00:44:32;2.55;;;0.70;;
54517;SDS011;40423;53.176;6.002;2023-08-31T00:46:58;2.83;;;0.85;;
54517;SDS011;40423;53.176;6.002;2023-08-31T00:49:25;3.75;;;0.60;;
54517;SDS011;40423;53.176;6.002;2023-08-31T00:51:50;2.85;;;0.80;;
54517;SDS011;40423;53.176;6.002;2023-08-31T00:54:16;3.00;;;0.85;;
54517;SDS011;40423;53.176;6.002;2023-08-31T00:56:43;4.78;;;0.70;;
54517;SDS011;40423;53.176;6.002;2023-08-31T00:59:12;3.53;;;0.65;;
54517;SDS011;40423;53.176;6.002;2023-08-31T01:01:41;2.92;;;0.50;;
54517;SDS011;40423;53.176;6.002;2023-08-31T01:07:12;1.70;;;0.60;;
54517;SDS011;40423;53.176;6.002;2023-08-31T01:15:02;4.88;;;0.80;;
54517;SDS011;40423;53.176;6.002;2023-08-31T01:17:30;3.08;;;0.60;;
54517;SDS011;40423;53.176;6.002;2023-08-31T01:19:58;2.38;;;0.63;;
54517;SDS011;40423;53.176;6.002;2023-08-31T01:22:33;2.20;;;0.60;;
54517;SDS011;40423;53.176;6.002;2023-08-31T01:25:05;2.13;;;0.52;;
54517;SDS011;40423;53.176;6.002;2023-08-31T01:27:34;1.95;;;0.60;;
54517;SDS011;40423;53.176;6.002;2023-08-31T01:30:01;2.47;;;0.60;;
54517;SDS011;40423;53.176;6.002;2023-08-31T01:32:28;1.45;;;0.60;;
54517;SDS011;40423;53.176;6.002;2023-08-31T01:34:54;2.38;;;0.73;;
54517;SDS011;40423;53.176;6.002;2023-08-31T01:38:05;3.50;;;0.70;;
54517;SDS011;40423;53.176;6.002;2023-08-31T01:40:21;1.55;;;0.95;;
54517;SDS011;40423;53.176;6.002;2023-08-31T01:43:10;2.85;;;0.75;;
54517;SDS011;40423;53.176;6.002;2023-08-31T01:45:36;3.13;;;0.70;;
54517;SDS011;40423;53.176;6.002;2023-08-31T01:48:03;2.10;;;0.75;;
54517;SDS011;40423;53.176;6.002;2023-08-31T01:50:30;5.55;;;0.80;;
54517;SDS011;40423;53.176;6.002;2023-08-31T01:52:55;1.52;;;0.68;;
54517;SDS011;40423;53.176;6.002;2023-08-31T01:55:22;2.30;;;0.77;;
54517;SDS011;40423;53.176;6.002;2023-08-31T01:57:48;4.80;;;0.80;;
54517;SDS011;40423;53.176;6.002;2023-08-31T02:00:14;2.38;;;0.60;;
54517;SDS011;40423;53.176;6.002;2023-08-31T02:02:42;3.65;;;0.70;;
54517;SDS011;40423;53.176;6.002;2023-08-31T02:05:07;2.85;;;0.47;;
54517;SDS011;40423;53.176;6.002;2023-08-31T02:07:34;3.65;;;0.75;;
54517;SDS011;40423;53.176;6.002;2023-08-31T02:09:59;1.80;;;0.60;;
54517;SDS011;40423;53.176;6.002;2023-08-31T02:12:25;1.27;;;0.70;;
54517;SDS011;40423;53.176;6.002;2023-08-31T02:14:51;1.70;;;0.70;;
54517;SDS011;40423;53.176;6.002;2023-08-31T02:17:16;2.38;;;0.70;;
54517;SDS011;40423;53.176;6.002;2023-08-31T02:19:42;2.95;;;0.70;;
54517;SDS011;40423;53.176;6.002;2023-08-31T02:22:08;2.58;;;0.70;;
54517;SDS011;40423;53.176;6.002;2023-08-31T02:24:34;2.42;;;0.60;;
54517;SDS011;40423;53.176;6.002;2023-08-31T02:27:00;2.08;;;0.63;;
54517;SDS011;40423;53.176;6.002;2023-08-31T02:29:26;2.47;;;0.70;;
54517;SDS011;40423;53.176;6.002;2023-08-31T02:31:51;5.30;;;1.05;;
54517;SDS011;40423;53.176;6.002;2023-08-31T02:34:17;2.53;;;0.60;;
54517;SDS011;40423;53.176;6.002;2023-08-31T02:36:43;6.13;;;0.88;;
54517;SDS011;40423;53.176;6.002;2023-08-31T02:39:08;2.45;;;0.80;;
54517;SDS011;40423;53.176;6.002;2023-08-31T02:41:34;3.00;;;0.60;;
54517;SDS011;40423;53.176;6.002;2023-08-31T02:44:00;2.30;;;0.60;;
54517;SDS011;40423;53.176;6.002;2023-08-31T02:46:25;2.25;;;0.90;;
54517;SDS011;40423;53.176;6.002;2023-08-31T02:48:51;2.47;;;0.70;;
54517;SDS011;40423;53.176;6.002;2023-08-31T02:51:17;2.13;;;0.73;;
54517;SDS011;40423;53.176;6.002;2023-08-31T02:53:42;2.88;;;0.80;;
54517;SDS011;40423;53.176;6.002;2023-08-31T02:56:08;4.30;;;0.93;;
54517;SDS011;40423;53.176;6.002;2023-08-31T02:58:34;2.60;;;0.80;;
54517;SDS011;40423;53.176;6.002;2023-08-31T03:01:09;3.92;;;0.70;;
54517;SDS011;40423;53.176;6.002;2023-08-31T03:03:37;4.45;;;0.90;;
54517;SDS011;40423;53.176;6.002;2023-08-31T03:06:09;3.33;;;0.80;;
54517;SDS011;40423;53.176;6.002;2023-08-31T03:08:36;6.85;;;1.08;;
54517;SDS011;40423;53.176;6.002;2023-08-31T03:11:02;3.13;;;0.90;;
54517;SDS011;40423;53.176;6.002;2023-08-31T03:13:30;6.18;;;1.10;;
54517;SDS011;40423;53.176;6.002;2023-08-31T03:15:56;3.00;;;1.00;;
54517;SDS011;40423;53.176;6.002;2023-08-31T03:18:22;4.20;;;1.30;;
54517;SDS011;40423;53.176;6.002;2023-08-31T03:20:48;3.90;;;1.08;;
54517;SDS011;40423;53.176;6.002;2023-08-31T03:23:14;4.78;;;1.23;;
54517;SDS011;40423;53.176;6.002;2023-08-31T03:25:40;6.03;;;1.08;;
54517;SDS011;40423;53.176;6.002;2023-08-31T03:28:06;4.47;;;1.02;;
54517;SDS011;40423;53.176;6.002;2023-08-31T03:30:32;5.32;;;1.30;;
54517;SDS011;40423;53.176;6.002;2023-08-31T03:32:58;4.88;;;1.15;;
54517;SDS011;40423;53.176;6.002;2023-08-31T03:35:23;6.53;;;1.40;;
54517;SDS011;40423;53.176;6.002;2023-08-31T03:37:55;10.63;;;1.63;;
54517;SDS011;40423;53.176;6.002;2023-08-31T03:40:21;4.15;;;1.40;;
54517;SDS011;40423;53.176;6.002;2023-08-31T03:42:48;6.72;;;1.38;;
54517;SDS011;40423;53.176;6.002;2023-08-31T03:45:14;4.85;;;1.17;;
54517;SDS011;40423;53.176;6.002;2023-08-31T03:47:40;4.65;;;1.20;;
54517;SDS011;40423;53.176;6.002;2023-08-31T03:50:06;5.95;;;1.45;;
54517;SDS011;40423;53.176;6.002;2023-08-31T03:52:33;6.22;;;1.80;;
54517;SDS011;40423;53.176;6.002;2023-08-31T03:54:59;9.55;;;1.88;;
54517;SDS011;40423;53.176;6.002;2023-08-31T03:57:25;5.03;;;1.35;;
54517;SDS011;40423;53.176;6.002;2023-08-31T03:59:51;16.92;;;2.53;;
54517;SDS011;40423;53.176;6.002;2023-08-31T04:02:17;6.85;;;1.73;;
54517;SDS011;40423;53.176;6.002;2023-08-31T04:04:43;4.15;;;1.02;;
54517;SDS011;40423;53.176;6.002;2023-08-31T04:07:08;6.40;;;1.60;;
54517;SDS011;40423;53.176;6.002;2023-08-31T04:09:34;5.10;;;1.38;;
54517;SDS011;40423;53.176;6.002;2023-08-31T04:12:00;8.88;;;1.35;;
54517;SDS011;40423;53.176;6.002;2023-08-31T04:14:26;6.63;;;1.40;;
54517;SDS011;40423;53.176;6.002;2023-08-31T04:16:52;6.70;;;1.77;;
54517;SDS011;40423;53.176;6.002;2023-08-31T04:19:19;7.18;;;1.45;;
54517;SDS011;40423;53.176;6.002;2023-08-31T04:21:45;7.03;;;1.27;;
54517;SDS011;40423;53.176;6.002;2023-08-31T04:24:20;7.03;;;1.83;;
54517;SDS011;40423;53.176;6.002;2023-08-31T04:26:46;5.80;;;1.77;;
54517;SDS011;40423;53.176;6.002;2023-08-31T04:29:14;7.10;;;1.67;;
54517;SDS011;40423;53.176;6.002;2023-08-31T04:31:39;4.15;;;1.30;;
54517;SDS011;40423;53.176;6.002;2023-08-31T04:34:05;4.50;;;1.45;;
54517;SDS011;40423;53.176;6.002;2023-08-31T04:36:32;3.60;;;1.30;;
54517;SDS011;40423;53.176;6.002;2023-08-31T04:38:58;3.72;;;1.30;;
54517;SDS011;40423;53.176;6.002;2023-08-31T04:41:24;2.80;;;1.33;;
54517;SDS011;40423;53.176;6.002;2023-08-31T04:43:50;3.63;;;1.42;;
54517;SDS011;40423;53.176;6.002;2023-08-31T04:46:15;5.63;;;1.42;;
54517;SDS011;40423;53.176;6.002;2023-08-31T04:48:41;5.13;;;1.50;;
54517;SDS011;40423;53.176;6.002;2023-08-31T04:51:09;3.15;;;1.23;;
54517;SDS011;40423;53.176;6.002;2023-08-31T04:53:51;6.10;;;1.60;;
54517;SDS011;40423;53.176;6.002;2023-08-31T04:56:17;5.03;;;1.40;;
54517;SDS011;40423;53.176;6.002;2023-08-31T04:58:43;4.53;;;1.50;;
54517;SDS011;40423;53.176;6.002;2023-08-31T05:01:09;5.55;;;1.75;;
54517;SDS011;40423;53.176;6.002;2023-08-31T05:03:34;4.70;;;1.50;;
54517;SDS011;40423;53.176;6.002;2023-08-31T05:06:00;5.95;;;1.58;;
54517;SDS011;40423;53.176;6.002;2023-08-31T05:08:28;5.85;;;1.73;;
54517;SDS011;40423;53.176;6.002;2023-08-31T05:10:54;5.20;;;1.70;;
54517;SDS011;40423;53.176;6.002;2023-08-31T05:13:20;7.18;;;1.75;;
54517;SDS011;40423;53.176;6.002;2023-08-31T05:15:45;3.95;;;1.50;;
54517;SDS011;40423;53.176;6.002;2023-08-31T05:18:11;7.15;;;1.73;;
54517;SDS011;40423;53.176;6.002;2023-08-31T05:20:37;5.50;;;1.90;;
54517;SDS011;40423;53.176;6.002;2023-08-31T05:23:02;5.00;;;1.77;;
54517;SDS011;40423;53.176;6.002;2023-08-31T05:25:28;3.08;;;1.40;;
54517;SDS011;40423;53.176;6.002;2023-08-31T05:27:54;7.63;;;1.48;;
54517;SDS011;40423;53.176;6.002;2023-08-31T05:30:20;5.65;;;1.60;;
54517;SDS011;40423;53.176;6.002;2023-08-31T05:32:45;4.13;;;1.40;;
54517;SDS011;40423;53.176;6.002;2023-08-31T05:35:11;8.30;;;1.45;;
54517;SDS011;40423;53.176;6.002;2023-08-31T05:37:37;3.63;;;1.15;;
54517;SDS011;40423;53.176;6.002;2023-08-31T05:40:03;4.10;;;1.33;;
54517;SDS011;40423;53.176;6.002;2023-08-31T05:42:32;7.65;;;2.03;;
54517;SDS011;40423;53.176;6.002;2023-08-31T05:44:58;6.40;;;1.70;;
54517;SDS011;40423;53.176;6.002;2023-08-31T05:47:23;4.82;;;1.73;;
54517;SDS011;40423;53.176;6.002;2023-08-31T05:49:49;3.88;;;1.50;;
54517;SDS011;40423;53.176;6.002;2023-08-31T05:52:16;4.75;;;1.45;;
54517;SDS011;40423;53.176;6.002;2023-08-31T05:54:42;3.55;;;1.23;;
54517;SDS011;40423;53.176;6.002;2023-08-31T05:57:07;5.72;;;1.50;;
54517;SDS011;40423;53.176;6.002;2023-08-31T05:59:33;3.15;;;1.40;;
54517;SDS011;40423;53.176;6.002;2023-08-31T06:01:59;3.83;;;1.58;;
54517;SDS011;40423;53.176;6.002;2023-08-31T06:04:24;8.57;;;1.40;;
54517;SDS011;40423;53.176;6.002;2023-08-31T06:06:50;6.13;;;1.52;;
54517;SDS011;40423;53.176;6.002;2023-08-31T06:09:19;2.78;;;1.30;;
54517;SDS011;40423;53.176;6.002;2023-08-31T06:11:45;3.22;;;1.20;;
54517;SDS011;40423;53.176;6.002;2023-08-31T06:14:11;2.95;;;1.20;;
54517;SDS011;40423;53.176;6.002;2023-08-31T06:16:36;6.18;;;1.20;;
54517;SDS011;40423;53.176;6.002;2023-08-31T06:19:02;5.82;;;1.77;;
54517;SDS011;40423;53.176;6.002;2023-08-31T06:21:28;9.13;;;1.40;;
54517;SDS011;40423;53.176;6.002;2023-08-31T06:23:54;4.53;;;1.00;;
54517;SDS011;40423;53.176;6.002;2023-08-31T06:26:19;3.72;;;1.08;;
54517;SDS011;40423;53.176;6.002;2023-08-31T06:28:45;7.43;;;1.60;;
54517;SDS011;40423;53.176;6.002;2023-08-31T06:31:11;3.58;;;1.27;;
54517;SDS011;40423;53.176;6.002;2023-08-31T06:33:36;4.13;;;1.10;;
54517;SDS011;40423;53.176;6.002;2023-08-31T06:36:02;3.75;;;1.00;;
54517;SDS011;40423;53.176;6.002;2023-08-31T06:38:28;6.30;;;1.42;;
54517;SDS011;40423;53.176;6.002;2023-08-31T06:40:54;4.22;;;1.38;;
54517;SDS011;40423;53.176;6.002;2023-08-31T06:43:24;3.83;;;1.35;;
54517;SDS011;40423;53.176;6.002;2023-08-31T06:45:52;2.72;;;1.10;;
54517;SDS011;40423;53.176;6.002;2023-08-31T06:48:18;5.78;;;1.40;;
54517;SDS011;40423;53.176;6.002;2023-08-31T06:50:43;4.25;;;1.30;;
54517;SDS011;40423;53.176;6.002;2023-08-31T06:53:09;5.28;;;1.35;;
54517;SDS011;40423;53.176;6.002;2023-08-31T06:55:35;4.30;;;1.30;;
54517;SDS011;40423;53.176;6.002;2023-08-31T06:58:04;4.28;;;1.70;;
54517;SDS011;40423;53.176;6.002;2023-08-31T07:00:30;3.97;;;1.38;;
54517;SDS011;40423;53.176;6.002;2023-08-31T07:02:57;6.20;;;1.40;;
54517;SDS011;40423;53.176;6.002;2023-08-31T07:05:25;5.93;;;1.75;;
54517;SDS011;40423;53.176;6.002;2023-08-31T07:07:54;4.55;;;1.10;;
54517;SDS011;40423;53.176;6.002;2023-08-31T07:10:20;3.55;;;1.40;;
54517;SDS011;40423;53.176;6.002;2023-08-31T07:12:46;3.47;;;0.80;;
54517;SDS011;40423;53.176;6.002;2023-08-31T07:15:12;3.85;;;1.05;;
54517;SDS011;40423;53.176;6.002;2023-08-31T07:17:38;2.70;;;1.00;;
54517;SDS011;40423;53.176;6.002;2023-08-31T07:20:04;3.28;;;0.95;;
54517;SDS011;40423;53.176;6.002;2023-08-31T07:22:32;4.03;;;1.02;;
54517;SDS011;40423;53.176;6.002;2023-08-31T07:24:59;2.83;;;1.20;;
54517;SDS011;40423;53.176;6.002;2023-08-31T07:27:24;2.97;;;1.15;;
54517;SDS011;40423;53.176;6.002;2023-08-31T07:29:50;4.28;;;1.15;;
54517;SDS011;40423;53.176;6.002;2023-08-31T07:32:19;3.47;;;0.90;;
54517;SDS011;40423;53.176;6.002;2023-08-31T07:34:44;4.53;;;1.05;;
54517;SDS011;40423;53.176;6.002;2023-08-31T07:37:10;1.45;;;0.63;;
54517;SDS011;40423;53.176;6.002;2023-08-31T07:39:36;2.30;;;0.75;;
54517;SDS011;40423;53.176;6.002;2023-08-31T07:42:02;2.75;;;0.85;;
54517;SDS011;40423;53.176;6.002;2023-08-31T07:44:27;3.53;;;0.90;;
54517;SDS011;40423;53.176;6.002;2023-08-31T07:46:53;2.88;;;1.10;;
54517;SDS011;40423;53.176;6.002;2023-08-31T07:49:19;2.40;;;0.68;;
54517;SDS011;40423;53.176;6.002;2023-08-31T07:51:45;2.75;;;0.88;;
54517;SDS011;40423;53.176;6.002;2023-08-31T07:54:10;3.28;;;0.70;;
54517;SDS011;40423;53.176;6.002;2023-08-31T07:56:37;4.28;;;0.77;;
54517;SDS011;40423;53.176;6.002;2023-08-31T07:59:05;1.55;;;0.55;;
54517;SDS011;40423;53.176;6.002;2023-08-31T08:01:30;2.78;;;0.63;;
54517;SDS011;40423;53.176;6.002;2023-08-31T08:03:57;3.22;;;0.60;;
54517;SDS011;40423;53.176;6.002;2023-08-31T08:06:23;1.63;;;0.55;;
54517;SDS011;40423;53.176;6.002;2023-08-31T08:08:49;1.27;;;0.52;;
54517;SDS011;40423;53.176;6.002;2023-08-31T08:11:14;2.60;;;0.70;;
54517;SDS011;40423;53.176;6.002;2023-08-31T08:13:40;5.93;;;1.52;;
54517;SDS011;40423;53.176;6.002;2023-08-31T08:16:06;6.18;;;1.27;;
54517;SDS011;40423;53.176;6.002;2023-08-31T08:18:33;3.08;;;0.73;;
54517;SDS011;40423;53.176;6.002;2023-08-31T08:20:58;2.13;;;0.95;;
54517;SDS011;40423;53.176;6.002;2023-08-31T08:23:24;1.83;;;0.70;;
54517;SDS011;40423;53.176;6.002;2023-08-31T08:25:50;2.53;;;0.52;;
54517;SDS011;40423;53.176;6.002;2023-08-31T08:28:15;1.85;;;0.80;;
54517;SDS011;40423;53.176;6.002;2023-08-31T08:30:41;2.25;;;0.73;;
54517;SDS011;40423;53.176;6.002;2023-08-31T08:33:08;1.25;;;0.68;;
54517;SDS011;40423;53.176;6.002;2023-08-31T08:35:34;2.70;;;0.60;;
54517;SDS011;40423;53.176;6.002;2023-08-31T08:38:02;2.40;;;1.20;;
54517;SDS011;40423;53.176;6.002;2023-08-31T08:40:30;2.92;;;0.82;;
54517;SDS011;40423;53.176;6.002;2023-08-31T08:42:57;3.38;;;0.98;;
54517;SDS011;40423;53.176;6.002;2023-08-31T08:45:33;5.80;;;1.13;;
54517;SDS011;40423;53.176;6.002;2023-08-31T08:48:03;2.67;;;1.08;;
54517;SDS011;40423;53.176;6.002;2023-08-31T08:50:31;4.47;;;1.45;;
54517;SDS011;40423;53.176;6.002;2023-08-31T08:52:59;5.63;;;1.38;;
54517;SDS011;40423;53.176;6.002;2023-08-31T08:55:25;4.80;;;1.17;;
54517;SDS011;40423;53.176;6.002;2023-08-31T08:57:51;6.90;;;1.67;;
54517;SDS011;40423;53.176;6.002;2023-08-31T09:00:16;5.68;;;1.13;;
54517;SDS011;40423;53.176;6.002;2023-08-31T09:02:42;5.32;;;1.27;;
54517;SDS011;40423;53.176;6.002;2023-08-31T09:05:08;2.53;;;0.57;;
54517;SDS011;40423;53.176;6.002;2023-08-31T09:07:35;4.65;;;0.90;;
54517;SDS011;40423;53.176;6.002;2023-08-31T09:10:01;1.70;;;1.08;;
54517;SDS011;40423;53.176;6.002;2023-08-31T09:12:28;3.33;;;0.70;;
54517;SDS011;40423;53.176;6.002;2023-08-31T09:15:01;5.22;;;1.00;;
54517;SDS011;40423;53.176;6.002;2023-08-31T09:17:41;3.70;;;0.80;;
54517;SDS011;40423;53.176;6.002;2023-08-31T09:20:09;2.63;;;0.80;;
54517;SDS011;40423;53.176;6.002;2023-08-31T09:22:35;2.75;;;0.80;;
54517;SDS011;40423;53.176;6.002;2023-08-31T09:25:01;3.85;;;1.05;;
54517;SDS011;40423;53.176;6.002;2023-08-31T09:27:30;3.28;;;1.05;;
54517;SDS011;40423;53.176;6.002;2023-08-31T09:30:03;2.78;;;0.80;;
54517;SDS011;40423;53.176;6.002;2023-08-31T09:32:29;2.42;;;0.63;;
54517;SDS011;40423;53.176;6.002;2023-08-31T09:34:55;3.65;;;0.80;;
54517;SDS011;40423;53.176;6.002;2023-08-31T09:37:20;4.35;;;0.73;;
54517;SDS011;40423;53.176;6.002;2023-08-31T09:39:46;1.75;;;0.85;;
54517;SDS011;40423;53.176;6.002;2023-08-31T09:42:12;3.83;;;0.75;;
54517;SDS011;40423;53.176;6.002;2023-08-31T09:44:44;2.55;;;0.68;;
54517;SDS011;40423;53.176;6.002;2023-08-31T09:47:12;3.38;;;1.00;;
54517;SDS011;40423;53.176;6.002;2023-08-31T09:49:39;2.08;;;0.70;;
54517;SDS011;40423;53.176;6.002;2023-08-31T09:52:07;2.05;;;0.70;;
54517;SDS011;40423;53.176;6.002;2023-08-31T09:54:35;1.95;;;0.88;;
54517;SDS011;40423;53.176;6.002;2023-08-31T09:57:01;3.42;;;0.77;;
54517;SDS011;40423;53.176;6.002;2023-08-31T09:59:28;2.47;;;0.70;;
54517;SDS011;40423;53.176;6.002;2023-08-31T10:01:54;3.42;;;1.17;;
54517;SDS011;40423;53.176;6.002;2023-08-31T10:04:26;2.53;;;0.75;;
54517;SDS011;40423;53.176;6.002;2023-08-31T10:06:54;3.45;;;1.33;;
54517;SDS011;40423;53.176;6.002;2023-08-31T10:09:20;1.75;;;0.70;;
54517;SDS011;40423;53.176;6.002;2023-08-31T10:11:46;2.08;;;0.52;;
54517;SDS011;40423;53.176;6.002;2023-08-31T10:14:12;1.88;;;0.70;;
54517;SDS011;40423;53.176;6.002;2023-08-31T10:16:39;3.65;;;1.08;;
54517;SDS011;40423;53.176;6.002;2023-08-31T10:19:05;1.35;;;0.70;;
54517;SDS011;40423;53.176;6.002;2023-08-31T10:21:31;5.45;;;1.35;;
54517;SDS011;40423;53.176;6.002;2023-08-31T10:23:58;4.40;;;1.02;;
54517;SDS011;40423;53.176;6.002;2023-08-31T10:26:25;2.05;;;0.80;;
54517;SDS011;40423;53.176;6.002;2023-08-31T10:28:56;2.13;;;1.13;;
54517;SDS011;40423;53.176;6.002;2023-08-31T10:31:23;2.00;;;0.98;;
54517;SDS011;40423;53.176;6.002;2023-08-31T10:33:59;2.33;;;0.70;;
54517;SDS011;40423;53.176;6.002;2023-08-31T10:39:05;2.15;;;0.80;;
54517;SDS011;40423;53.176;6.002;2023-08-31T10:41:34;2.58;;;1.08;;
54517;SDS011;40423;53.176;6.002;2023-08-31T10:44:00;3.72;;;1.17;;
54517;SDS011;40423;53.176;6.002;2023-08-31T10:46:36;2.70;;;0.80;;
54517;SDS011;40423;53.176;6.002;2023-08-31T10:51:38;1.65;;;0.70;;
54517;SDS011;40423;53.176;6.002;2023-08-31T10:59:24;3.28;;;1.00;;
54517;SDS011;40423;53.176;6.002;2023-08-31T11:02:00;2.53;;;1.00;;
54517;SDS011;40423;53.176;6.002;2023-08-31T11:04:30;2.15;;;0.82;;
54517;SDS011;40423;53.176;6.002;2023-08-31T11:07:15;2.63;;;0.90;;
54517;SDS011;40423;53.176;6.002;2023-08-31T11:09:42;4.68;;;0.88;;
54517;SDS011;40423;53.176;6.002;2023-08-31T11:12:10;4.45;;;1.00;;
54517;SDS011;40423;53.176;6.002;2023-08-31T11:14:36;1.95;;;0.85;;
54517;SDS011;40423;53.176;6.002;2023-08-31T11:17:03;2.53;;;0.95;;
54517;SDS011;40423;53.176;6.002;2023-08-31T11:19:30;2.90;;;0.63;;
54517;SDS011;40423;53.176;6.002;2023-08-31T11:21:57;3.45;;;1.33;;
54517;SDS011;40423;53.176;6.002;2023-08-31T11:24:25;2.08;;;1.00;;
54517;SDS011;40423;53.176;6.002;2023-08-31T11:26:51;4.80;;;0.90;;
54517;SDS011;40423;53.176;6.002;2023-08-31T11:29:17;3.35;;;0.70;;
54517;SDS011;40423;53.176;6.002;2023-08-31T11:31:43;4.53;;;1.10;;
54517;SDS011;40423;53.176;6.002;2023-08-31T11:34:12;3.22;;;1.30;;
54517;SDS011;40423;53.176;6.002;2023-08-31T11:36:39;3.05;;;1.20;;
54517;SDS011;40423;53.176;6.002;2023-08-31T11:39:06;4.93;;;1.33;;
54517;SDS011;40423;53.176;6.002;2023-08-31T11:41:34;3.28;;;1.00;;
54517;SDS011;40423;53.176;6.002;2023-08-31T11:44:02;3.10;;;0.90;;
54517;SDS011;40423;53.176;6.002;2023-08-31T11:46:31;3.17;;;1.10;;
54517;SDS011;40423;53.176;6.002;2023-08-31T11:48:58;4.30;;;1.20;;
54517;SDS011;40423;53.176;6.002;2023-08-31T11:51:25;4.15;;;1.15;;
54517;SDS011;40423;53.176;6.002;2023-08-31T11:53:54;16.70;;;1.77;;
54517;SDS011;40423;53.176;6.002;2023-08-31T11:56:21;5.25;;;1.15;;
54517;SDS011;40423;53.176;6.002;2023-08-31T11:58:47;3.08;;;1.00;;
54517;SDS011;40423;53.176;6.002;2023-08-31T12:01:22;3.88;;;0.80;;
54517;SDS011;40423;53.176;6.002;2023-08-31T12:03:48;2.85;;;1.05;;
54517;SDS011;40423;53.176;6.002;2023-08-31T12:06:15;3.08;;;0.90;;
54517;SDS011;40423;53.176;6.002;2023-08-31T12:08:44;5.25;;;0.98;;
54517;SDS011;40423;53.176;6.002;2023-08-31T12:11:10;6.43;;;1.30;;
54517;SDS011;40423;53.176;6.002;2023-08-31T12:13:36;4.30;;;1.40;;
54517;SDS011;40423;53.176;6.002;2023-08-31T12:16:02;3.60;;;1.00;;
54517;SDS011;40423;53.176;6.002;2023-08-31T12:18:30;4.50;;;1.27;;
54517;SDS011;40423;53.176;6.002;2023-08-31T12:20:59;4.50;;;1.73;;
54517;SDS011;40423;53.176;6.002;2023-08-31T12:23:25;5.35;;;1.48;;
54517;SDS011;40423;53.176;6.002;2023-08-31T12:25:52;4.95;;;0.98;;
54517;SDS011;40423;53.176;6.002;2023-08-31T12:28:19;3.83;;;1.40;;
54517;SDS011;40423;53.176;6.002;2023-08-31T12:30:49;6.18;;;1.10;;
54517;SDS011;40423;53.176;6.002;2023-08-31T12:33:15;7.25;;;1.85;;
54517;SDS011;40423;53.176;6.002;2023-08-31T12:35:41;4.85;;;1.58;;
54517;SDS011;40423;53.176;6.002;2023-08-31T12:38:07;4.20;;;1.25;;
54517;SDS011;40423;53.176;6.002;2023-08-31T12:40:33;5.03;;;1.50;;
54517;SDS011;40423;53.176;6.002;2023-08-31T12:42:59;5.32;;;1.80;;
54517;SDS011;40423;53.176;6.002;2023-08-31T12:45:25;4.85;;;1.77;;
54517;SDS011;40423;53.176;6.002;2023-08-31T12:47:50;5.85;;;1.38;;
54517;SDS011;40423;53.176;6.002;2023-08-31T12:50:16;6.03;;;1.40;;
54517;SDS011;40423;53.176;6.002;2023-08-31T12:52:43;3.65;;;1.30;;
54517;SDS011;40423;53.176;6.002;2023-08-31T12:55:14;5.03;;;1.70;;
54517;SDS011;40423;53.176;6.002;2023-08-31T12:57:41;8.13;;;1.60;;
54517;SDS011;40423;53.176;6.002;2023-08-31T13:00:07;7.22;;;1.90;;
54517;SDS011;40423;53.176;6.002;2023-08-31T13:02:40;6.03;;;1.50;;
54517;SDS011;40423;53.176;6.002;2023-08-31T13:05:10;5.80;;;1.63;;
54517;SDS011;40423;53.176;6.002;2023-08-31T13:07:36;4.25;;;1.30;;
54517;SDS011;40423;53.176;6.002;2023-08-31T13:10:03;3.40;;;1.00;;
54517;SDS011;40423;53.176;6.002;2023-08-31T13:12:30;2.60;;;1.20;;
54517;SDS011;40423;53.176;6.002;2023-08-31T13:14:59;4.70;;;1.42;;
54517;SDS011;40423;53.176;6.002;2023-08-31T13:17:26;3.53;;;1.50;;
54517;SDS011;40423;53.176;6.002;2023-08-31T13:19:52;3.60;;;0.80;;
54517;SDS011;40423;53.176;6.002;2023-08-31T13:22:19;3.92;;;1.20;;
54517;SDS011;40423;53.176;6.002;2023-08-31T13:24:45;4.68;;;1.70;;
54517;SDS011;40423;53.176;6.002;2023-08-31T13:27:11;3.80;;;1.10;;
54517;SDS011;40423;53.176;6.002;2023-08-31T13:29:37;4.95;;;1.42;;
54517;SDS011;40423;53.176;6.002;2023-08-31T13:32:02;5.30;;;1.30;;
54517;SDS011;40423;53.176;6.002;2023-08-31T13:34:29;4.10;;;1.35;;
54517;SDS011;40423;53.176;6.002;2023-08-31T13:36:55;4.88;;;1.20;;
54517;SDS011;40423;53.176;6.002;2023-08-31T13:39:21;6.00;;;1.85;;
54517;SDS011;40423;53.176;6.002;2023-08-31T13:41:53;2.05;;;1.02;;
54517;SDS011;40423;53.176;6.002;2023-08-31T13:44:22;10.57;;;2.53;;
54517;SDS011;40423;53.176;6.002;2023-08-31T13:46:48;9.07;;;1.48;;
54517;SDS011;40423;53.176;6.002;2023-08-31T13:49:14;3.95;;;1.33;;
54517;SDS011;40423;53.176;6.002;2023-08-31T13:51:41;5.15;;;1.10;;
54517;SDS011;40423;53.176;6.002;2023-08-31T13:54:07;2.13;;;1.00;;
54517;SDS011;40423;53.176;6.002;2023-08-31T13:56:33;3.88;;;1.67;;
54517;SDS011;40423;53.176;6.002;2023-08-31T13:58:59;4.53;;;1.48;;
54517;SDS011;40423;53.176;6.002;2023-08-31T14:01:25;7.57;;;2.83;;
54517;SDS011;40423;53.176;6.002;2023-08-31T14:03:51;8.02;;;3.80;;
54517;SDS011;40423;53.176;6.002;2023-08-31T14:06:17;6.85;;;3.25;;
54517;SDS011;40423;53.176;6.002;2023-08-31T14:08:49;7.57;;;2.10;;
54517;SDS011;40423;53.176;6.002;2023-08-31T14:11:21;6.95;;;3.22;;
54517;SDS011;40423;53.176;6.002;2023-08-31T14:13:47;8.30;;;2.08;;
54517;SDS011;40423;53.176;6.002;2023-08-31T14:16:12;5.22;;;1.42;;
54517;SDS011;40423;53.176;6.002;2023-08-31T14:18:41;4.00;;;1.38;;
54517;SDS011;40423;53.176;6.002;2023-08-31T14:21:19;3.67;;;1.50;;
54517;SDS011;40423;53.176;6.002;2023-08-31T14:23:46;5.05;;;1.08;;
54517;SDS011;40423;53.176;6.002;2023-08-31T14:26:11;3.83;;;1.35;;
54517;SDS011;40423;53.176;6.002;2023-08-31T14:28:37;5.80;;;1.40;;
54517;SDS011;40423;53.176;6.002;2023-08-31T14:31:06;2.45;;;1.00;;
54517;SDS011;40423;53.176;6.002;2023-08-31T14:33:32;5.85;;;2.05;;
54517;SDS011;40423;53.176;6.002;2023-08-31T14:35:58;5.75;;;1.60;;
54517;SDS011;40423;53.176;6.002;2023-08-31T14:38:24;4.70;;;1.17;;
54517;SDS011;40423;53.176;6.002;2023-08-31T14:40:50;7.80;;;1.77;;
54517;SDS011;40423;53.176;6.002;2023-08-31T14:43:16;5.63;;;1.30;;
54517;SDS011;40423;53.176;6.002;2023-08-31T14:45:42;5.53;;;1.08;;
54517;SDS011;40423;53.176;6.002;2023-08-31T14:48:08;6.00;;;1.20;;
54517;SDS011;40423;53.176;6.002;2023-08-31T14:50:34;5.22;;;1.60;;
54517;SDS011;40423;53.176;6.002;2023-08-31T14:52:59;4.80;;;1.35;;
54517;SDS011;40423;53.176;6.002;2023-08-31T14:55:25;4.30;;;1.48;;
54517;SDS011;40423;53.176;6.002;2023-08-31T14:57:51;4.80;;;1.30;;
54517;SDS011;40423;53.176;6.002;2023-08-31T15:00:16;3.85;;;1.48;;
54517;SDS011;40423;53.176;6.002;2023-08-31T15:02:43;4.85;;;1.40;;
54517;SDS011;40423;53.176;6.002;2023-08-31T15:05:09;4.18;;;1.27;;